Latest Weather Observations for Adelaide Airport

IDS60901

Issued at 7:01 pm CDT Saturday 21 January 2017 (issued every 10 minutes, with the page automatically refreshed every 10 minutes)

About weather observations | Map of Adelaide area stations | Latest observations for Adelaide area | Other Formats
Station Details ID: 023034 Name: ADELAIDE AIRPORT Lat: -34.95 Lon: 138.52 Height: 2.0 m
Data from the previous 72 hours. | See also: Recent months at Adelaide Airport
Date/Time
CDT
Temp
°C
App
Temp
°C
Dew
Point
°C
Rel
Hum
%
Delta-T
°C
Wind Press
QNH
hPa
Press
MSL
hPa
Rain since
9am
mm
Dir  Spd
km/h
Gust
km/h
Spd
kts
Gust
kts
21/06:30pm 22.5 18.8 12.7 54 5.6 SW 24 32 13 17 1012.3 1012.3 0.0
21/06:00pm 22.2 18.1 12.7 55 5.4 SSW 26 32 14 17 1012.4 1012.4 0.0
21/05:30pm 22.1 17.5 12.2 53 5.6 SSW 28 35 15 19 1012.6 1012.6 0.0
21/05:00pm 22.3 17.4 12.6 54 5.5 SW 30 35 16 19 1012.8 1012.8 0.0
21/04:30pm 23.0 18.5 12.5 51 6.0 SW 28 33 15 18 1013.0 1013.0 0.0
21/04:00pm 23.8 20.3 13.3 51 6.1 SW 24 28 13 15 1013.3 1013.3 0.0
21/03:30pm 22.1 18.5 12.0 52 5.7 SW 22 30 12 16 1013.4 1013.4 0.0
21/03:00pm 22.6 19.2 12.6 53 5.7 SW 22 28 12 15 1013.8 1013.8 0.0
21/02:30pm 22.1 18.5 11.7 51 5.8 WSW 22 30 12 16 1014.0 1014.0 0.0
21/02:00pm 21.9 18.3 11.7 52 5.7 WSW 22 30 12 16 1014.2 1014.2 0.0
21/01:30pm 21.9 18.9 11.9 53 5.6 WSW 19 24 10 13 1014.2 1014.2 0.0
21/01:00pm 21.2 18.3 11.0 52 5.6 W 17 20 9 11 1014.3 1014.3 0.0
21/12:30pm 21.2 18.6 10.6 50 5.8 W 15 20 8 11 1014.6 1014.6 0.0
21/12:00pm 21.0 18.0 10.8 52 5.6 WSW 17 24 9 13 1014.7 1014.7 0.0
21/11:30am 20.7 17.8 11.0 53 5.3 W 17 20 9 11 1014.8 1014.8 0.0
21/11:00am 20.5 19.0 10.6 53 5.4 WNW 9 17 5 9 1014.9 1014.9 0.0
21/10:30am 19.7 18.2 10.7 56 4.9 SW 9 11 5 6 1015.4 1015.4 0.0
21/10:00am 19.2 18.1 10.5 57 4.7 E 7 15 4 8 1015.5 1015.5 0.0
21/09:30am 18.7 18.3 9.6 55 4.8 SSE 2 11 1 6 1015.7 1015.7 0.0
21/09:00am 18.6 17.6 10.4 59 4.4 SW 6 13 3 7 1015.7 1015.7 0.0
21/08:30am 17.3 16.0 10.1 62 3.8 WNW 7 9 4 5 1015.7 1015.7 0.0
21/08:00am 16.7 16.1 10.3 66 3.4 NNW 4 7 2 4 1015.1 1015.1 0.0
21/07:30am 16.4 15.4 11.0 70 2.9 ENE 7 11 4 6 1014.6 1014.6 0.0
21/07:00am 15.0 13.4 10.2 73 2.5 ESE 9 11 5 6 1014.4 1014.4 0.0
21/06:30am 14.0 12.1 10.6 80 1.8 SE 11 17 6 9 1014.1 1014.1 0.0
21/06:00am 14.4 12.5 10.6 78 2.0 SSE 11 13 6 7 1013.9 1013.9 0.0
21/05:30am 14.1 12.3 10.7 80 1.8 S 11 13 6 7 1013.8 1013.8 0.0
21/05:00am 14.4 12.1 10.6 78 2.0 SSE 13 17 7 9 1013.8 1013.8 0.0
21/04:30am 14.7 12.5 10.7 77 2.1 SSE 13 17 7 9 1013.5 1013.5 0.0
21/04:00am 15.2 12.9 10.4 73 2.5 SSE 13 15 7 8 1013.4 1013.4 0.0
21/03:30am 15.0 12.7 10.4 74 2.4 SE 13 17 7 9 1013.2 1013.2 0.0
21/03:00am 15.4 14.2 10.3 71 2.7 S 7 9 4 5 1013.2 1013.2 0.0
21/02:30am 15.9 14.2 10.0 68 3.1 SSE 9 13 5 7 1013.2 1013.2 0.0
21/02:00am 16.1 13.7 10.0 67 3.2 SSE 13 22 7 12 1013.3 1013.3 0.0
21/01:30am 16.3 13.2 10.2 67 3.2 SSE 17 22 9 12 1013.2 1013.2 0.0
21/01:00am 16.6 14.2 10.2 66 3.4 S 13 19 7 10 1013.3 1013.3 0.0
21/12:30am 15.7 13.9 10.8 72 2.6 S 11 19 6 10 1013.4 1013.4 0.0
21/12:00am 15.6 13.8 10.7 72 2.6 S 11 15 6 8 1013.2 1013.2 0.0
 
Date/Time
CDT
Temp
°C
App
Temp
°C
Dew
Point
°C
Rel
Hum
%
Delta-T
°C
Wind Press
QNH
hPa
Press
MSL
hPa
Rain since
9am
mm
Dir  Spd
km/h
Gust
km/h
Spd
kts
Gust
kts
20/11:30pm 15.7 13.5 10.8 72 2.6 S 13 17 7 9 1012.8 1012.8 0.0
20/11:00pm 16.3 14.1 10.7 69 3.0 S 13 17 7 9 1012.6 1012.6 0.0
20/10:30pm 16.4 13.8 10.8 69 3.0 S 15 20 8 11 1012.3 1012.3 0.0
20/10:00pm 16.6 13.6 10.6 67 3.2 SSE 17 24 9 13 1012.0 1012.0 0.0
20/09:30pm 17.0 13.4 10.0 63 3.7 SSE 19 28 10 15 1011.5 1011.5 0.0
20/09:00pm 17.6 14.1 10.3 62 3.9 SSE 19 28 10 15 1011.1 1011.1 0.0
20/08:30pm 18.0 13.5 10.1 60 4.2 SSE 24 32 13 17 1010.6 1010.6 0.0
20/08:00pm 19.0 14.8 9.8 55 4.9 SSE 22 30 12 16 1010.0 1010.0 0.0
20/07:30pm 20.0 15.3 9.2 49 5.7 SSE 24 32 13 17 1009.7 1009.7 0.0
20/07:00pm 20.7 15.7 9.5 48 6.0 S 26 33 14 18 1009.2 1009.2 0.0
20/06:30pm 21.3 15.5 9.6 47 6.3 SSE 30 37 16 20 1009.0 1009.0 0.0
20/06:00pm 21.9 16.5 9.4 45 6.7 SSE 28 41 15 22 1008.7 1008.7 0.0
20/05:30pm 22.6 16.3 9.0 42 7.3 SSE 32 41 17 22 1008.7 1008.7 0.0
20/05:00pm 22.9 17.5 11.0 47 6.6 S 30 46 16 25 1008.7 1008.7 0.0
20/04:30pm 22.0 17.0 10.8 49 6.2 S 28 39 15 21 1008.4 1008.4 0.0
20/04:00pm 22.5 18.0 10.0 45 6.8 S 24 35 13 19 1008.2 1008.2 0.0
20/03:30pm 22.2 17.6 12.3 53 5.6 S 28 37 15 20 1008.2 1008.2 0.0
20/03:00pm 22.6 18.7 10.9 47 6.5 S 22 33 12 18 1008.2 1008.2 0.0
20/02:30pm 21.9 18.2 12.6 55 5.3 SE 24 33 13 18 1008.1 1008.1 0.0
20/02:00pm 22.5 18.8 11.4 49 6.2 SSE 22 33 12 18 1007.9 1007.9 0.0
20/01:30pm 22.2 18.5 11.5 50 6.0 SSE 22 33 12 18 1008.0 1008.0 0.0
20/01:00pm 20.9 17.5 11.1 53 5.4 SSE 20 32 11 17 1007.8 1007.8 0.0
20/12:30pm 21.0 17.2 11.2 53 5.4 SSE 22 33 12 18 1007.6 1007.6 0.0
20/12:00pm 19.8 16.5 11.7 59 4.5 S 20 32 11 17 1007.6 1007.6 0.0
20/11:30am 19.4 14.6 12.9 66 3.7 S 30 37 16 20 1007.4 1007.4 0.0
20/11:00am 19.8 15.5 12.1 61 4.3 S 26 33 14 18 1006.9 1006.8 0.0
20/10:30am 18.8 14.4 13.0 69 3.3 SSW 28 37 15 20 1006.5 1006.4 0.0
20/10:00am 18.5 14.4 12.8 69 3.2 S 26 32 14 17 1006.0 1005.9 0.0
20/09:30am 18.8 14.5 13.2 70 3.2 S 28 35 15 19 1005.4 1005.3 0.0
20/09:00am 18.5 14.6 13.4 72 2.9 SSW 26 35 14 19 1005.0 1004.9 11.8
20/08:30am 19.0 15.4 14.2 73 2.8 SSW 26 41 14 22 1004.4 1004.3 11.8
20/08:00am 18.6 14.7 14.5 77 2.4 S 28 39 15 21 1003.9 1003.8 11.8
20/07:30am 18.6 15.7 15.2 80 2.0 S 24 33 13 18 1003.0 1002.9 11.8
20/07:00am 19.0 15.9 15.5 80 2.1 SSW 26 37 14 20 1002.2 1002.1 11.8
20/06:47am 19.0 15.1 15.5 80 2.1 SSW 30 48 16 26 1002.0 1001.9 11.8
20/06:30am 19.1 15.6 16.4 84 1.6 SW 30 43 16 23 1001.8 1001.7 11.8
20/06:10am 19.0 15.4 17.2 89 1.1 SW 32 43 17 23 1001.6 1001.5 11.8
20/06:00am 19.1 15.7 16.8 86 1.4 SW 30 41 16 22 1001.4 1001.3 11.8
20/05:30am 19.4 15.7 17.4 88 1.2 SW 33 46 18 25 1000.8 1000.7 11.8
20/05:00am 20.3 17.3 17.7 85 1.6 SW 30 39 16 21 1000.3 1000.2 11.8
20/04:43am 20.6 19.4 18.4 87 1.4 WSW 22 33 12 18 1000.0 999.9 11.8
20/04:30am 20.7 20.2 19.0 90 1.1 WSW 20 28 11 15 999.6 999.5 11.8
20/04:00am 21.0 24.8 20.1 95 0.6 CALM 0 7 0 4 999.1 999.0 11.8
20/03:30am 20.6 23.0 19.7 95 0.6 SW 6 7 3 4 998.5 998.4 11.8
20/03:00am 20.3 22.6 19.5 95 0.5 WNW 6 7 3 4 998.2 998.1 11.6
20/02:30am 20.2 23.6 19.3 95 0.6 CALM 0 4 0 2 997.9 997.8 11.6
20/02:00am 19.5 19.8 18.7 95 0.5 ENE 15 17 8 9 997.7 997.6 11.6
20/01:51am 19.3 19.5 18.5 95 0.5 ENE 15 19 8 10 998.0 997.9 11.6
20/01:30am 18.8 18.1 18.2 96 0.4 ESE 19 24 10 13 998.4 998.3 10.6
20/01:00am 19.2 16.0 18.1 93 0.7 S 32 39 17 21 999.7 999.6 6.8
20/12:41am 19.5 16.3 18.7 95 0.5 SSW 33 50 18 27 999.1 999.0 5.6
20/12:30am 20.0 18.0 19.2 95 0.5 SW 28 41 15 22 999.3 999.2 4.6
20/12:25am 20.3 19.3 19.7 96 0.4 SW 24 35 13 19 999.3 999.2 4.6
20/12:09am 21.0 20.6 20.2 95 0.5 SW 22 30 12 16 999.4 999.3 4.0
20/12:00am 21.0 20.9 19.9 93 0.7 SW 20 28 11 15 999.4 999.3 3.8
 
Date/Time
CDT
Temp
°C
App
Temp
°C
Dew
Point
°C
Rel
Hum
%
Delta-T
°C
Wind Press
QNH
hPa
Press
MSL
hPa
Rain since
9am
mm
Dir  Spd
km/h
Gust
km/h
Spd
kts
Gust
kts
19/11:40pm 20.7 20.5 19.4 92 0.8 SW 19 28 10 15 999.4 999.3 3.8
19/11:30pm 21.0 20.7 19.6 92 0.9 SW 20 26 11 14 999.4 999.3 3.8
19/11:18pm 21.2 20.6 19.8 92 0.9 SW 22 28 12 15 999.6 999.5 2.6
19/11:00pm 22.0 21.4 19.8 87 1.4 WNW 22 32 12 17 999.5 999.4 2.2
19/10:56pm 22.6 22.7 20.3 87 1.5 NW 20 26 11 14 999.5 999.4 2.2
19/10:30pm 25.1 26.1 22.9 87 1.5 NW 22 32 12 17 999.4 999.3 2.2
19/10:00pm 25.2 26.5 23.3 89 1.3 N 22 32 12 17 1000.1 1000.0 2.0
19/09:30pm 24.9 23.9 22.7 87 1.5 NNE 32 37 17 20 999.1 999.0 2.0
19/09:00pm 24.7 22.8 22.8 89 1.3 NNW 37 56 20 30 999.7 999.6 1.4
19/08:47pm 24.7 21.3 23.8 95 0.6 NNW 48 67 26 36 1000.2 1000.1 0.8
19/08:38pm 24.7 18.1 23.8 95 0.6 NW 65 96 35 52 999.4 999.3 0.4
19/08:30pm 25.6 20.4 23.7 89 1.3 NNW 57 111 31 60 998.9 998.8 0.0
19/08:27pm 29.1 26.4 21.9 65 4.8 N 39 111 21 60 998.4 998.3 0.0
19/08:25pm 35.9 31.1 12.9 25 13.9 NNE 30 46 16 25 997.7 997.6 0.0
19/08:00pm 36.1 30.6 12.3 24 14.3 NNE 33 48 18 26 995.6 995.5 0.0
19/07:30pm 36.6 32.2 11.6 22 15.0 NE 26 33 14 18 995.9 995.8 0.0
19/07:00pm 37.4 32.9 12.7 22 15.0 ENE 28 37 15 20 996.3 996.2 0.0
19/06:30pm 38.0 35.3 13.4 23 15.2 NNE 20 33 11 18 996.5 996.4 0.0
19/06:00pm 36.9 35.7 16.1 29 13.3 NNE 17 28 9 15 996.9 996.8 0.0
19/05:30pm 37.0 35.9 15.4 27 13.7 NNE 15 24 8 13 997.3 997.2 0.0
19/05:00pm 37.7 36.8 15.8 27 13.9 NNW 15 28 8 15 998.3 998.2 0.0
19/04:30pm 36.9 36.1 15.0 27 13.8 NNE 13 19 7 10 999.2 999.1 0.0
19/04:00pm 36.9 34.0 12.3 22 14.8 N 19 26 10 14 1000.3 1000.2 0.0
19/03:30pm 36.1 32.7 11.2 22 14.8 N 20 28 11 15 1001.2 1001.1 0.0
19/03:00pm 36.8 34.1 11.6 22 15.1 NNE 17 28 9 15 1002.1 1002.0 0.0
19/02:30pm 35.8 33.0 11.2 22 14.6 ENE 17 28 9 15 1002.8 1002.7 0.0
19/02:00pm 34.6 31.4 11.2 24 13.8 NE 19 28 10 15 1003.8 1003.7 0.0
19/01:30pm 32.9 30.2 10.2 24 13.1 NE 15 24 8 13 1004.6 1004.5 0.0
19/01:00pm 32.0 28.9 10.2 26 12.5 NE 17 26 9 14 1005.3 1005.2 0.0
19/12:30pm 29.4 28.0 14.4 40 9.1 NNE 15 22 8 12 1006.2 1006.1 0.0
19/12:00pm 25.5 24.0 14.2 49 6.7 NNW 15 20 8 11 1006.7 1006.6 0.0
19/11:30am 29.6 27.0 9.2 28 11.4 NE 13 19 7 10 1007.1 1007.0 0.0
19/11:00am 27.9 26.3 10.3 33 9.9 ENE 9 15 5 8 1007.6 1007.6 0.0
19/10:30am 27.3 24.7 9.4 32 9.9 NNE 13 22 7 12 1008.2 1008.2 0.0
19/10:00am 26.3 22.3 8.9 33 9.5 NE 20 28 11 15 1008.4 1008.4 0.0
19/09:30am 25.4 21.2 8.3 33 9.2 NE 20 28 11 15 1008.5 1008.5 0.0
19/09:00am 23.8 21.3 9.7 40 7.7 NE 13 17 7 9 1008.7 1008.7 0.0
19/08:30am 22.2 21.6 10.3 46 6.5 NNW 4 9 2 5 1008.7 1008.7 0.0
19/08:00am 21.2 21.1 9.4 47 6.3 CALM 0 4 0 2 1009.1 1009.1 0.0
19/07:30am 20.2 18.9 10.0 52 5.5 SSW 7 11 4 6 1009.4 1009.4 0.0
19/07:00am 19.2 18.1 10.7 58 4.6 SSW 7 7 4 4 1009.2 1009.2 0.0
19/06:30am 17.9 18.1 10.6 62 3.9 CALM 0 0 0 0 1009.2 1009.2 0.0
19/06:00am 18.1 17.8 11.3 64 3.7 SSW 4 7 2 4 1009.2 1009.2 0.0
19/05:30am 18.1 17.3 11.7 66 3.5 SW 7 9 4 5 1009.2 1009.2 0.0
19/05:00am 18.2 17.2 11.0 63 3.9 SW 7 9 4 5 1009.2 1009.2 0.0
19/04:30am 18.3 18.6 10.9 62 4.0 CALM 0 0 0 0 1009.4 1009.4 0.0
19/04:00am 19.0 18.0 10.9 59 4.4 ESE 7 11 4 6 1009.5 1009.5 0.0
19/03:30am 19.3 16.7 10.6 57 4.7 SE 15 17 8 9 1009.6 1009.6 0.0
19/03:00am 19.2 16.7 10.9 58 4.5 SE 15 20 8 11 1010.2 1010.2 0.0
19/02:30am 19.3 17.1 10.8 58 4.6 SE 13 15 7 8 1010.7 1010.7 0.0
19/02:00am 19.1 18.3 11.7 62 4.1 SSE 7 11 4 6 1011.1 1011.1 0.0
19/01:30am 19.6 17.9 11.2 58 4.6 ESE 11 13 6 7 1011.4 1011.4 0.0
19/01:00am 19.2 16.8 11.4 60 4.3 ESE 15 20 8 11 1011.8 1011.8 0.0
19/12:30am 18.5 16.2 11.6 64 3.8 SE 15 20 8 11 1012.3 1012.3 0.0
19/12:00am 18.8 15.9 11.1 61 4.2 SE 17 22 9 12 1012.5 1012.5 0.0
 
Date/Time
CDT
Temp
°C
App
Temp
°C
Dew
Point
°C
Rel
Hum
%
Delta-T
°C
Wind Press
QNH
hPa
Press
MSL
hPa
Rain since
9am
mm
Dir  Spd
km/h
Gust
km/h
Spd
kts
Gust
kts
18/11:30pm 19.0 16.1 10.9 59 4.4 ESE 17 22 9 12 1012.8 1012.8 0.0
18/11:00pm 18.6 15.6 10.8 60 4.2 ESE 17 24 9 13 1012.9 1012.9 0.0
18/10:30pm 18.8 15.6 11.1 61 4.2 SE 19 24 10 13 1013.2 1013.2 0.0
18/10:00pm 19.1 15.6 11.0 59 4.4 SE 20 28 11 15 1013.0 1013.0 0.0
18/09:30pm 19.5 16.1 10.6 56 4.8 ESE 19 26 10 14 1012.9 1012.9 0.0
18/09:00pm 19.5 15.6 10.9 57 4.7 SE 22 30 12 16 1012.9 1012.9 0.0
18/08:30pm 20.2 16.3 10.9 55 5.1 SE 22 30 12 16 1012.8 1012.8 0.0
18/08:00pm 21.2 16.5 10.6 50 5.8 SE 26 33 14 18 1012.7 1012.7 0.0
18/07:30pm 22.2 16.7 10.5 47 6.4 SE 30 35 16 19 1012.4 1012.4 0.0

Latest Capital City Observations: Canberra | Sydney | Melbourne | Brisbane | Adelaide | Perth | Hobart | Darwin

Other Formats:

Comma delimited format used in spreadsheet applications
http://www.bom.gov.au/fwo/IDS60901/IDS60901.94672.axf

JavaScript Object Notation format (JSON) in row-major order
http://www.bom.gov.au/fwo/IDS60901/IDS60901.94672.json